sensor_id;sensor_type;location;lat;lon;timestamp;pressure;altitude;pressure_sealevel;temperature;humidity
56825;BME280;42705;50.326;18.772;2022-12-07T00:00:30;98014.05;;;0.35;81.58
56825;BME280;42705;50.326;18.772;2022-12-07T00:05:58;98011.31;;;0.45;81.65
56825;BME280;42705;50.326;18.772;2022-12-07T00:11:21;98012.66;;;0.60;81.81
56825;BME280;42705;50.326;18.772;2022-12-07T00:16:43;98020.41;;;0.67;81.43
56825;BME280;42705;50.326;18.772;2022-12-07T00:22:04;98015.14;;;0.61;81.25
56825;BME280;42705;50.326;18.772;2022-12-07T00:27:27;98006.37;;;0.56;81.21
56825;BME280;42705;50.326;18.772;2022-12-07T00:32:48;98008.43;;;0.59;81.22
56825;BME280;42705;50.326;18.772;2022-12-07T00:38:10;98001.69;;;0.56;81.19
56825;BME280;42705;50.326;18.772;2022-12-07T00:43:32;98000.59;;;0.60;80.97
56825;BME280;42705;50.326;18.772;2022-12-07T00:48:53;98000.59;;;0.60;80.97
56825;BME280;42705;50.326;18.772;2022-12-07T00:54:15;97986.95;;;0.58;81.18
56825;BME280;42705;50.326;18.772;2022-12-07T00:59:36;97991.30;;;0.57;81.09
56825;BME280;42705;50.326;18.772;2022-12-07T01:04:57;97994.20;;;0.51;81.22
56825;BME280;42705;50.326;18.772;2022-12-07T01:10:18;97985.38;;;0.55;81.22
56825;BME280;42705;50.326;18.772;2022-12-07T01:15:44;97971.86;;;0.59;81.34
56825;BME280;42705;50.326;18.772;2022-12-07T01:26:37;97969.22;;;0.75;81.48
56825;BME280;42705;50.326;18.772;2022-12-07T01:31:59;97968.12;;;0.86;81.48
56825;BME280;42705;50.326;18.772;2022-12-07T01:37:20;97972.09;;;0.92;81.24
56825;BME280;42705;50.326;18.772;2022-12-07T01:42:41;97977.55;;;0.95;81.27
56825;BME280;42705;50.326;18.772;2022-12-07T01:48:04;97974.23;;;1.00;81.13
56825;BME280;42705;50.326;18.772;2022-12-07T01:53:28;97973.37;;;1.07;81.11
56825;BME280;42705;50.326;18.772;2022-12-07T01:58:51;97968.41;;;1.04;80.95
56825;BME280;42705;50.326;18.772;2022-12-07T02:04:14;97969.88;;;1.08;80.91
56825;BME280;42705;50.326;18.772;2022-12-07T02:09:35;97968.03;;;1.10;80.88
56825;BME280;42705;50.326;18.772;2022-12-07T02:14:56;97966.37;;;1.09;80.82
56825;BME280;42705;50.326;18.772;2022-12-07T02:44:02;97969.06;;;1.00;80.63
56825;BME280;42705;50.326;18.772;2022-12-07T02:49:26;97956.61;;;1.07;80.78
56825;BME280;42705;50.326;18.772;2022-12-07T02:54:48;97945.48;;;0.99;80.53
56825;BME280;42705;50.326;18.772;2022-12-07T03:00:13;97943.90;;;1.04;80.76
56825;BME280;42705;50.326;18.772;2022-12-07T03:11:46;97947.48;;;0.86;80.50
56825;BME280;42705;50.326;18.772;2022-12-07T03:17:16;97951.35;;;0.79;80.60
56825;BME280;42705;50.326;18.772;2022-12-07T03:22:40;97938.72;;;0.75;80.76
56825;BME280;42705;50.326;18.772;2022-12-07T03:28:05;97938.72;;;0.75;80.76
56825;BME280;42705;50.326;18.772;2022-12-07T03:33:29;97932.75;;;0.74;80.88
56825;BME280;42705;50.326;18.772;2022-12-07T03:39:13;97936.06;;;0.69;80.96
56825;BME280;42705;50.326;18.772;2022-12-07T03:44:44;97934.77;;;0.69;80.91
56825;BME280;42705;50.326;18.772;2022-12-07T03:50:21;97935.03;;;0.71;81.17
56825;BME280;42705;50.326;18.772;2022-12-07T03:55:45;97933.75;;;0.71;81.15
56825;BME280;42705;50.326;18.772;2022-12-07T04:01:08;97934.85;;;0.75;81.27
56825;BME280;42705;50.326;18.772;2022-12-07T04:06:30;97932.20;;;0.76;81.34
56825;BME280;42705;50.326;18.772;2022-12-07T04:11:51;97931.27;;;0.84;81.25
56825;BME280;42705;50.326;18.772;2022-12-07T04:17:12;97926.22;;;0.83;81.06
56825;BME280;42705;50.326;18.772;2022-12-07T04:22:34;97932.20;;;0.76;81.07
56825;BME280;42705;50.326;18.772;2022-12-07T04:27:55;97921.22;;;0.72;81.00
56825;BME280;42705;50.326;18.772;2022-12-07T04:33:17;97928.87;;;0.67;80.96
56825;BME280;42705;50.326;18.772;2022-12-07T04:38:38;97929.14;;;0.62;80.95
56825;BME280;42705;50.326;18.772;2022-12-07T04:44:04;97938.05;;;0.56;81.04
56825;BME280;42705;50.326;18.772;2022-12-07T04:49:27;97937.16;;;0.57;81.32
56825;BME280;42705;50.326;18.772;2022-12-07T04:54:50;97928.77;;;0.61;81.14
56825;BME280;42705;50.326;18.772;2022-12-07T05:00:11;97925.93;;;0.59;81.15
56825;BME280;42705;50.326;18.772;2022-12-07T05:05:33;97932.89;;;0.56;81.21
56825;BME280;42705;50.326;18.772;2022-12-07T05:10:56;97932.27;;;0.53;81.10
56825;BME280;42705;50.326;18.772;2022-12-07T05:16:17;97936.86;;;0.48;81.26
56825;BME280;42705;50.326;18.772;2022-12-07T05:21:38;97937.67;;;0.48;81.05
56825;BME280;42705;50.326;18.772;2022-12-07T05:27:00;97940.06;;;0.44;81.29
56825;BME280;42705;50.326;18.772;2022-12-07T05:32:21;97938.14;;;0.40;81.35
56825;BME280;42705;50.326;18.772;2022-12-07T05:37:42;97940.17;;;0.42;81.40
56825;BME280;42705;50.326;18.772;2022-12-07T05:43:03;97935.71;;;0.37;81.37
56825;BME280;42705;50.326;18.772;2022-12-07T05:48:25;97937.73;;;0.32;81.42
56825;BME280;42705;50.326;18.772;2022-12-07T05:53:46;97936.55;;;0.31;81.49
56825;BME280;42705;50.326;18.772;2022-12-07T05:59:09;97938.63;;;0.24;81.55
56825;BME280;42705;50.326;18.772;2022-12-07T06:04:46;97941.14;;;0.25;81.64
56825;BME280;42705;50.326;18.772;2022-12-07T06:10:08;97936.72;;;0.27;81.85
56825;BME280;42705;50.326;18.772;2022-12-07T06:15:30;97949.78;;;0.24;81.75
56825;BME280;42705;50.326;18.772;2022-12-07T06:20:50;97944.33;;;0.22;81.75
56825;BME280;42705;50.326;18.772;2022-12-07T06:26:11;97951.69;;;0.21;81.94
56825;BME280;42705;50.326;18.772;2022-12-07T06:31:32;97954.20;;;0.22;81.94
56825;BME280;42705;50.326;18.772;2022-12-07T06:36:54;97959.62;;;0.25;81.99
56825;BME280;42705;50.326;18.772;2022-12-07T06:42:15;97964.50;;;0.22;82.03
56825;BME280;42705;50.326;18.772;2022-12-07T06:47:36;97961.45;;;0.23;81.98
56825;BME280;42705;50.326;18.772;2022-12-07T06:52:57;97964.58;;;0.21;82.16
56825;BME280;42705;50.326;18.772;2022-12-07T06:58:18;97964.95;;;0.22;82.08
56825;BME280;42705;50.326;18.772;2022-12-07T07:03:39;97968.56;;;0.26;82.19
56825;BME280;42705;50.326;18.772;2022-12-07T07:09:00;97966.05;;;0.25;82.26
56825;BME280;42705;50.326;18.772;2022-12-07T07:14:22;97969.30;;;0.28;82.18
56825;BME280;42705;50.326;18.772;2022-12-07T07:19:43;97975.20;;;0.31;82.21
56825;BME280;42705;50.326;18.772;2022-12-07T07:25:04;97976.48;;;0.31;82.28
56825;BME280;42705;50.326;18.772;2022-12-07T07:30:26;97977.34;;;0.38;82.29
56825;BME280;42705;50.326;18.772;2022-12-07T07:35:48;97973.48;;;0.38;82.16
56825;BME280;42705;50.326;18.772;2022-12-07T07:41:09;97974.77;;;0.38;82.24
56825;BME280;42705;50.326;18.772;2022-12-07T07:46:30;97969.62;;;0.46;82.24
56825;BME280;42705;50.326;18.772;2022-12-07T07:51:53;97969.27;;;0.52;82.32
56825;BME280;42705;50.326;18.772;2022-12-07T07:57:16;97972.33;;;0.59;82.20
56825;BME280;42705;50.326;18.772;2022-12-07T08:02:37;97972.71;;;0.67;82.20
56825;BME280;42705;50.326;18.772;2022-12-07T08:07:59;97977.32;;;0.69;82.22
56825;BME280;42705;50.326;18.772;2022-12-07T08:13:20;97973.27;;;0.72;82.06
56825;BME280;42705;50.326;18.772;2022-12-07T08:18:42;97986.35;;;0.76;82.13
56825;BME280;42705;50.326;18.772;2022-12-07T08:24:04;97980.83;;;0.82;82.21
56825;BME280;42705;50.326;18.772;2022-12-07T08:29:26;97991.44;;;0.92;82.09
56825;BME280;42705;50.326;18.772;2022-12-07T08:34:47;98000.20;;;0.97;82.03
56825;BME280;42705;50.326;18.772;2022-12-07T08:40:10;98005.92;;;1.02;82.00
56825;BME280;42705;50.326;18.772;2022-12-07T08:45:32;98001.50;;;0.97;81.83
56825;BME280;42705;50.326;18.772;2022-12-07T08:50:54;98018.52;;;0.92;81.89
56825;BME280;42705;50.326;18.772;2022-12-07T08:56:16;98015.69;;;0.97;81.90
56825;BME280;42705;50.326;18.772;2022-12-07T09:01:37;98014.66;;;0.99;81.97
56825;BME280;42705;50.326;18.772;2022-12-07T09:06:58;98013.19;;;1.03;82.01
56825;BME280;42705;50.326;18.772;2022-12-07T09:12:19;98007.03;;;1.12;81.95
56825;BME280;42705;50.326;18.772;2022-12-07T09:17:41;97996.70;;;1.27;82.12
56825;BME280;42705;50.326;18.772;2022-12-07T09:23:02;97992.92;;;1.33;81.90
56825;BME280;42705;50.326;18.772;2022-12-07T09:28:23;97988.97;;;1.41;81.72
56825;BME280;42705;50.326;18.772;2022-12-07T09:33:44;97979.63;;;1.46;81.74
56825;BME280;42705;50.326;18.772;2022-12-07T09:39:05;97969.39;;;1.52;81.48
56825;BME280;42705;50.326;18.772;2022-12-07T09:44:26;97971.03;;;1.60;81.36
56825;BME280;42705;50.326;18.772;2022-12-07T09:49:49;97961.44;;;1.62;81.38
56825;BME280;42705;50.326;18.772;2022-12-07T09:55:16;97956.64;;;1.63;81.29
56825;BME280;42705;50.326;18.772;2022-12-07T10:00:40;97952.69;;;1.65;81.23
56825;BME280;42705;50.326;18.772;2022-12-07T10:06:02;97942.97;;;1.68;81.21
56825;BME280;42705;50.326;18.772;2022-12-07T10:11:25;97939.30;;;1.72;81.28
56825;BME280;42705;50.326;18.772;2022-12-07T10:16:47;97930.63;;;1.73;81.27
56825;BME280;42705;50.326;18.772;2022-12-07T10:22:13;97916.59;;;1.78;81.18
56825;BME280;42705;50.326;18.772;2022-12-07T10:27:36;97916.80;;;1.87;81.14
56825;BME280;42705;50.326;18.772;2022-12-07T10:32:57;97909.98;;;1.86;81.09
56825;BME280;42705;50.326;18.772;2022-12-07T10:38:18;97908.61;;;1.88;80.95
56825;BME280;42705;50.326;18.772;2022-12-07T10:43:47;97907.31;;;1.88;80.81
56825;BME280;42705;50.326;18.772;2022-12-07T11:35:38;97870.95;;;2.24;80.33
56825;BME280;42705;50.326;18.772;2022-12-07T11:41:04;97855.34;;;2.39;80.10
56825;BME280;42705;50.326;18.772;2022-12-07T11:52:14;97854.61;;;3.07;79.57
56825;BME280;42705;50.326;18.772;2022-12-07T11:57:42;97851.91;;;3.76;78.70
56825;BME280;42705;50.326;18.772;2022-12-07T12:03:11;97854.11;;;4.63;77.24
56825;BME280;42705;50.326;18.772;2022-12-07T12:25:56;97850.34;;;5.13;72.23
56825;BME280;42705;50.326;18.772;2022-12-07T12:36:49;97821.25;;;4.00;72.33
56825;BME280;42705;50.326;18.772;2022-12-07T12:42:20;97821.68;;;3.88;72.33
56825;BME280;42705;50.326;18.772;2022-12-07T12:47:43;97823.72;;;3.60;72.51
56825;BME280;42705;50.326;18.772;2022-12-07T12:53:26;97817.13;;;3.37;72.97
56825;BME280;42705;50.326;18.772;2022-12-07T12:58:48;97813.61;;;3.19;72.81
56825;BME280;42705;50.326;18.772;2022-12-07T13:04:21;97823.31;;;3.04;73.25
56825;BME280;42705;50.326;18.772;2022-12-07T13:09:42;97820.05;;;2.95;73.34
56825;BME280;42705;50.326;18.772;2022-12-07T13:15:22;97821.11;;;2.93;73.38
56825;BME280;42705;50.326;18.772;2022-12-07T13:20:55;97825.52;;;2.85;73.43
56825;BME280;42705;50.326;18.772;2022-12-07T13:31:56;97832.08;;;2.83;73.06
56825;BME280;42705;50.326;18.772;2022-12-07T13:37:30;97832.20;;;2.82;73.06
56825;BME280;42705;50.326;18.772;2022-12-07T13:43:04;97840.75;;;2.77;72.76
56825;BME280;42705;50.326;18.772;2022-12-07T13:48:35;97840.34;;;2.70;72.58
56825;BME280;42705;50.326;18.772;2022-12-07T13:54:12;97847.50;;;2.66;71.95
56825;BME280;42705;50.326;18.772;2022-12-07T13:59:34;97860.94;;;2.58;71.97
56825;BME280;42705;50.326;18.772;2022-12-07T14:05:16;97856.76;;;2.50;71.86
56825;BME280;42705;50.326;18.772;2022-12-07T14:16:29;97866.68;;;2.43;71.98
56825;BME280;42705;50.326;18.772;2022-12-07T14:22:08;97879.75;;;2.35;71.81
56825;BME280;42705;50.326;18.772;2022-12-07T14:27:33;97886.21;;;2.35;72.07
56825;BME280;42705;50.326;18.772;2022-12-07T14:32:57;97891.74;;;2.36;72.00
56825;BME280;42705;50.326;18.772;2022-12-07T14:38:22;97884.47;;;2.35;72.06
56825;BME280;42705;50.326;18.772;2022-12-07T14:43:45;97885.24;;;2.30;72.01
56825;BME280;42705;50.326;18.772;2022-12-07T14:49:07;97896.39;;;2.30;72.15
56825;BME280;42705;50.326;18.772;2022-12-07T14:54:31;97889.56;;;2.29;72.31
56825;BME280;42705;50.326;18.772;2022-12-07T14:59:52;97896.33;;;2.25;72.25
56825;BME280;42705;50.326;18.772;2022-12-07T15:05:14;97900.41;;;2.22;72.11
56825;BME280;42705;50.326;18.772;2022-12-07T15:10:35;97898.88;;;2.19;72.18
56825;BME280;42705;50.326;18.772;2022-12-07T15:15:59;97910.22;;;2.16;72.27
56825;BME280;42705;50.326;18.772;2022-12-07T15:21:20;97901.13;;;2.11;72.13
56825;BME280;42705;50.326;18.772;2022-12-07T15:26:41;97900.29;;;2.10;72.10
56825;BME280;42705;50.326;18.772;2022-12-07T15:32:03;97893.19;;;2.07;71.93
56825;BME280;42705;50.326;18.772;2022-12-07T15:37:24;97895.61;;;2.02;71.83
56825;BME280;42705;50.326;18.772;2022-12-07T15:42:45;97897.06;;;2.07;71.83
56825;BME280;42705;50.326;18.772;2022-12-07T15:48:07;97899.04;;;2.03;71.86
56825;BME280;42705;50.326;18.772;2022-12-07T15:53:28;97902.47;;;1.96;71.73
56825;BME280;42705;50.326;18.772;2022-12-07T15:58:49;97906.47;;;1.95;71.77
56825;BME280;42705;50.326;18.772;2022-12-07T16:04:11;97907.68;;;1.89;71.74
56825;BME280;42705;50.326;18.772;2022-12-07T16:09:32;97911.47;;;1.83;71.86
56825;BME280;42705;50.326;18.772;2022-12-07T16:14:53;97913.33;;;1.81;71.96
56825;BME280;42705;50.326;18.772;2022-12-07T16:20:15;97911.98;;;1.76;72.00
56825;BME280;42705;50.326;18.772;2022-12-07T16:25:36;97898.14;;;1.69;72.04
56825;BME280;42705;50.326;18.772;2022-12-07T16:31:12;97909.52;;;1.67;72.06
56825;BME280;42705;50.326;18.772;2022-12-07T16:36:35;97906.11;;;1.59;72.13
56825;BME280;42705;50.326;18.772;2022-12-07T16:41:56;97902.72;;;1.58;72.26
56825;BME280;42705;50.326;18.772;2022-12-07T16:47:17;97903.53;;;1.59;72.46
56825;BME280;42705;50.326;18.772;2022-12-07T16:52:39;97900.78;;;1.55;72.49
56825;BME280;42705;50.326;18.772;2022-12-07T16:58:01;97899.97;;;1.54;72.50
56825;BME280;42705;50.326;18.772;2022-12-07T17:03:22;97912.59;;;1.52;72.57
56825;BME280;42705;50.326;18.772;2022-12-07T17:08:43;97916.38;;;1.46;72.62
56825;BME280;42705;50.326;18.772;2022-12-07T17:14:05;97915.81;;;1.48;72.76
56825;BME280;42705;50.326;18.772;2022-12-07T17:19:44;97923.38;;;1.51;72.86
56825;BME280;42705;50.326;18.772;2022-12-07T17:25:07;97909.28;;;1.50;72.98
56825;BME280;42705;50.326;18.772;2022-12-07T17:30:30;97910.55;;;1.57;72.94
56825;BME280;42705;50.326;18.772;2022-12-07T17:35:51;97903.65;;;1.57;72.91
56825;BME280;42705;50.326;18.772;2022-12-07T17:41:16;97900.22;;;1.57;72.92
56825;BME280;42705;50.326;18.772;2022-12-07T17:46:57;97901.80;;;1.59;72.85
56825;BME280;42705;50.326;18.772;2022-12-07T17:52:20;97899.05;;;1.55;72.73
56825;BME280;42705;50.326;18.772;2022-12-07T17:58:01;97907.60;;;1.56;72.65
56825;BME280;42705;50.326;18.772;2022-12-07T18:03:22;97929.10;;;1.56;72.58
56825;BME280;42705;50.326;18.772;2022-12-07T18:08:43;97924.58;;;1.53;72.55
56825;BME280;42705;50.326;18.772;2022-12-07T18:14:05;97922.53;;;1.58;72.74
56825;BME280;42705;50.326;18.772;2022-12-07T18:19:26;97911.28;;;1.59;72.72
56825;BME280;42705;50.326;18.772;2022-12-07T18:24:47;97910.30;;;1.54;72.71
56825;BME280;42705;50.326;18.772;2022-12-07T18:30:09;97915.27;;;1.57;72.73
56825;BME280;42705;50.326;18.772;2022-12-07T18:35:31;97906.23;;;1.57;72.71
56825;BME280;42705;50.326;18.772;2022-12-07T18:40:57;97912.01;;;1.61;72.74
56825;BME280;42705;50.326;18.772;2022-12-07T18:46:19;97911.76;;;1.58;72.56
56825;BME280;42705;50.326;18.772;2022-12-07T18:51:41;97916.47;;;1.52;72.55
56825;BME280;42705;50.326;18.772;2022-12-07T18:57:03;97915.73;;;1.50;72.68
56825;BME280;42705;50.326;18.772;2022-12-07T19:02:24;97916.19;;;1.49;72.75
56825;BME280;42705;50.326;18.772;2022-12-07T19:07:46;97918.03;;;1.47;72.80
56825;BME280;42705;50.326;18.772;2022-12-07T19:13:08;97922.47;;;1.52;72.79
56825;BME280;42705;50.326;18.772;2022-12-07T19:18:30;97920.26;;;1.53;72.72
56825;BME280;42705;50.326;18.772;2022-12-07T19:23:51;97923.12;;;1.49;72.67
56825;BME280;42705;50.326;18.772;2022-12-07T19:29:12;97924.21;;;1.52;72.62
56825;BME280;42705;50.326;18.772;2022-12-07T19:34:35;97937.31;;;1.49;72.49
56825;BME280;42705;50.326;18.772;2022-12-07T19:39:57;97935.29;;;1.47;72.53
56825;BME280;42705;50.326;18.772;2022-12-07T19:45:18;97934.37;;;1.48;72.58
56825;BME280;42705;50.326;18.772;2022-12-07T19:50:39;97938.88;;;1.44;72.49
56825;BME280;42705;50.326;18.772;2022-12-07T19:56:02;97940.11;;;1.38;72.75
56825;BME280;42705;50.326;18.772;2022-12-07T20:01:24;97950.06;;;1.23;73.20
56825;BME280;42705;50.326;18.772;2022-12-07T20:06:47;97955.06;;;0.97;73.83
56825;BME280;42705;50.326;18.772;2022-12-07T20:12:11;97952.75;;;0.78;74.61
56825;BME280;42705;50.326;18.772;2022-12-07T20:17:50;97948.66;;;0.66;75.14
56825;BME280;42705;50.326;18.772;2022-12-07T20:23:11;97947.73;;;0.60;75.62
56825;BME280;42705;50.326;18.772;2022-12-07T20:28:32;97948.47;;;0.62;75.88
56825;BME280;42705;50.326;18.772;2022-12-07T20:33:54;97953.45;;;0.58;76.25
56825;BME280;42705;50.326;18.772;2022-12-07T20:39:19;97954.73;;;0.58;76.41
56825;BME280;42705;50.326;18.772;2022-12-07T20:44:42;97959.08;;;0.57;76.80
56825;BME280;42705;50.326;18.772;2022-12-07T20:50:05;97965.61;;;0.63;77.02
56825;BME280;42705;50.326;18.772;2022-12-07T20:55:27;97963.58;;;0.68;77.26
56825;BME280;42705;50.326;18.772;2022-12-07T21:00:48;97960.75;;;0.73;77.34
56825;BME280;42705;50.326;18.772;2022-12-07T21:06:12;97960.12;;;0.84;77.38
56825;BME280;42705;50.326;18.772;2022-12-07T21:11:34;97950.80;;;0.81;77.42
56825;BME280;42705;50.326;18.772;2022-12-07T21:16:57;97945.56;;;0.83;77.47
56825;BME280;42705;50.326;18.772;2022-12-07T21:22:18;97938.38;;;0.88;77.42
56825;BME280;42705;50.326;18.772;2022-12-07T21:27:39;97937.72;;;0.92;77.53
56825;BME280;42705;50.326;18.772;2022-12-07T21:33:00;97940.77;;;0.91;77.44
56825;BME280;42705;50.326;18.772;2022-12-07T21:38:21;97950.83;;;0.96;77.53
56825;BME280;42705;50.326;18.772;2022-12-07T21:43:43;97953.78;;;0.97;77.55
56825;BME280;42705;50.326;18.772;2022-12-07T21:49:10;97955.25;;;1.01;77.44
56825;BME280;42705;50.326;18.772;2022-12-07T21:54:33;97958.01;;;1.05;77.42
56825;BME280;42705;50.326;18.772;2022-12-07T21:59:54;97949.91;;;0.97;77.18
56825;BME280;42705;50.326;18.772;2022-12-07T22:05:16;97955.44;;;0.98;77.20
56825;BME280;42705;50.326;18.772;2022-12-07T22:10:37;97956.72;;;0.98;77.15
56825;BME280;42705;50.326;18.772;2022-12-07T22:15:58;97958.72;;;0.93;77.07
56825;BME280;42705;50.326;18.772;2022-12-07T22:21:20;97956.98;;;0.93;77.04
56825;BME280;42705;50.326;18.772;2022-12-07T22:26:43;97957.06;;;0.92;77.01
56825;BME280;42705;50.326;18.772;2022-12-07T22:32:04;97964.36;;;0.92;76.97
56825;BME280;42705;50.326;18.772;2022-12-07T22:37:27;97963.88;;;0.93;76.89
56825;BME280;42705;50.326;18.772;2022-12-07T22:42:48;97966.09;;;0.92;76.88
56825;BME280;42705;50.326;18.772;2022-12-07T22:48:10;97972.09;;;1.07;76.94
56825;BME280;42705;50.326;18.772;2022-12-07T22:53:31;97967.40;;;1.13;76.81
56825;BME280;42705;50.326;18.772;2022-12-07T22:58:53;97966.30;;;1.10;76.57
56825;BME280;42705;50.326;18.772;2022-12-07T23:04:14;97966.55;;;1.13;76.48
56825;BME280;42705;50.326;18.772;2022-12-07T23:09:35;97961.50;;;1.19;76.57
56825;BME280;42705;50.326;18.772;2022-12-07T23:14:56;97960.94;;;1.21;76.41
56825;BME280;42705;50.326;18.772;2022-12-07T23:20:17;97958.84;;;1.20;76.08
56825;BME280;42705;50.326;18.772;2022-12-07T23:25:38;97957.52;;;1.13;75.93
56825;BME280;42705;50.326;18.772;2022-12-07T23:31:13;97948.05;;;1.06;75.87
56825;BME280;42705;50.326;18.772;2022-12-07T23:36:32;97946.40;;;1.05;75.87
56825;BME280;42705;50.326;18.772;2022-12-07T23:41:53;97952.30;;;1.00;75.86
56825;BME280;42705;50.326;18.772;2022-12-07T23:47:14;97948.88;;;0.99;75.80
56825;BME280;42705;50.326;18.772;2022-12-07T23:52:35;97945.75;;;0.94;75.79
56825;BME280;42705;50.326;18.772;2022-12-07T23:57:56;97947.22;;;0.91;75.79
